XNO2282 EYVI-EKCH
Flight info
| Callsign | XNO2282 |
|---|---|
| Flight time | 1h 15m |
| Altitude | 34000 |
| Route | ELEKA DCT IRZUK DCT ADAXA DCT NINTA DCT KOLJA DCT ELVIX L975 TIDVU |
| Aircraft | A321/M-SDE3FGHIRWY/LB1 |
Departure
| Time | 2026-04-21 19:14 |
|---|---|
| Airport | Vilnius International Airport (EYVI) |
Arrival
| Time | 2026-04-21 20:29 |
|---|---|
| Airport | Copenhagen Kastrup Airport (EKCH) |
| Time | Latitude | Longitude | Altitude | Speed | Heading |
|---|---|---|---|---|---|
| 2026-04-21 18:15 | 54.63947 | 25.28331 | 621 ft | 0 kts | 77° |
| 2026-04-21 19:04 | 54.63947 | 25.28326 | 621 ft | 2 kts | 77° |
| 2026-04-21 19:04 | 54.63943 | 25.28300 | 621 ft | 2 kts | 77° |
| 2026-04-21 19:04 | 54.63940 | 25.28275 | 621 ft | 2 kts | 77° |
| 2026-04-21 19:04 | 54.63940 | 25.28249 | 621 ft | 2 kts | 116° |
| 2026-04-21 19:05 | 54.63950 | 25.28229 | 621 ft | 2 kts | 150° |
| 2026-04-21 19:05 | 54.63957 | 25.28224 | 622 ft | 1 kts | 169° |
| 2026-04-21 19:05 | 54.63963 | 25.28222 | 622 ft | 0 kts | 167° |
| 2026-04-21 19:07 | 54.63958 | 25.28224 | 622 ft | 2 kts | 167° |
| 2026-04-21 19:07 | 54.63928 | 25.28236 | 621 ft | 6 kts | 167° |
| 2026-04-21 19:08 | 54.63871 | 25.28259 | 618 ft | 10 kts | 167° |
| 2026-04-21 19:08 | 54.63789 | 25.28290 | 615 ft | 13 kts | 167° |
| 2026-04-21 19:08 | 54.63686 | 25.28331 | 611 ft | 16 kts | 167° |
| 2026-04-21 19:08 | 54.63560 | 25.28361 | 606 ft | 19 kts | 192° |
| 2026-04-21 19:09 | 54.63427 | 25.28276 | 600 ft | 21 kts | 201° |
| 2026-04-21 19:09 | 54.63285 | 25.28179 | 598 ft | 22 kts | 201° |
| 2026-04-21 19:09 | 54.63141 | 25.28078 | 596 ft | 22 kts | 202° |
| 2026-04-21 19:09 | 54.62999 | 25.27979 | 594 ft | 22 kts | 202° |
| 2026-04-21 19:10 | 54.62857 | 25.27880 | 593 ft | 22 kts | 202° |
| 2026-04-21 19:10 | 54.62716 | 25.27782 | 593 ft | 21 kts | 202° |
| 2026-04-21 19:10 | 54.62584 | 25.27690 | 596 ft | 18 kts | 201° |
| 2026-04-21 19:10 | 54.62515 | 25.27673 | 596 ft | 3 kts | 150° |
| 2026-04-21 19:11 | 54.62495 | 25.27691 | 596 ft | 0 kts | 147° |
| 2026-04-21 19:11 | 54.62485 | 25.27703 | 595 ft | 3 kts | 146° |
| 2026-04-21 19:11 | 54.62453 | 25.27744 | 593 ft | 7 kts | 142° |
| 2026-04-21 19:12 | 54.62404 | 25.27823 | 590 ft | 11 kts | 112° |
| 2026-04-21 19:12 | 54.62434 | 25.27897 | 589 ft | 0 kts | 24° |
| 2026-04-21 19:13 | 54.62450 | 25.27909 | 588 ft | 12 kts | 22° |
| 2026-04-21 19:13 | 54.62770 | 25.28131 | 587 ft | 85 kts | 21° |
| 2026-04-21 19:13 | 54.63519 | 25.28648 | 605 ft | 144 kts | 21° |
| 2026-04-21 19:13 | 54.64563 | 25.29361 | 911 ft | 168 kts | 21° |
| 2026-04-21 19:14 | 54.65653 | 25.30111 | 1560 ft | 171 kts | 21° |
| 2026-04-21 19:14 | 54.66734 | 25.30849 | 2299 ft | 170 kts | 21° |
| 2026-04-21 19:14 | 54.67851 | 25.31617 | 2660 ft | 179 kts | 21° |
| 2026-04-21 19:14 | 54.69051 | 25.32448 | 2925 ft | 192 kts | 21° |
| 2026-04-21 19:15 | 54.70331 | 25.33332 | 3186 ft | 206 kts | 21° |
| 2026-04-21 19:15 | 54.71712 | 25.34289 | 3442 ft | 223 kts | 21° |
| 2026-04-21 19:15 | 54.73172 | 25.35302 | 4054 ft | 225 kts | 22° |
| 2026-04-21 19:15 | 54.74615 | 25.36306 | 4707 ft | 225 kts | 22° |
| 2026-04-21 19:16 | 54.76058 | 25.37311 | 5330 ft | 226 kts | 22° |
| 2026-04-21 19:16 | 54.77511 | 25.38318 | 5953 ft | 227 kts | 20° |
| 2026-04-21 19:16 | 54.79067 | 25.38717 | 6544 ft | 231 kts | 354° |
| 2026-04-21 19:16 | 54.80558 | 25.37759 | 7146 ft | 239 kts | 329° |
| 2026-04-21 19:17 | 54.82431 | 25.32559 | 7870 ft | 275 kts | 295° |
| 2026-04-21 19:17 | 54.83130 | 25.29451 | 8414 ft | 281 kts | 295° |
| 2026-04-21 19:17 | 54.83687 | 25.26188 | 8997 ft | 290 kts | 278° |
| 2026-04-21 19:18 | 54.83369 | 25.22747 | 9580 ft | 300 kts | 248° |
| 2026-04-21 19:18 | 54.82091 | 25.19868 | 10178 ft | 305 kts | 217° |
| 2026-04-21 19:18 | 54.80203 | 25.18187 | 10627 ft | 312 kts | 200° |
| 2026-04-21 19:18 | 54.78113 | 25.16839 | 10903 ft | 326 kts | 199° |
| 2026-04-21 19:19 | 54.75955 | 25.15428 | 11164 ft | 341 kts | 203° |
| 2026-04-21 19:19 | 54.73976 | 25.13052 | 11399 ft | 353 kts | 229° |
| 2026-04-21 19:19 | 54.72716 | 25.09407 | 11660 ft | 360 kts | 254° |
| 2026-04-21 19:19 | 54.72405 | 25.05170 | 11926 ft | 362 kts | 278° |
| 2026-04-21 19:20 | 54.73045 | 25.00968 | 12228 ft | 365 kts | 295° |
| 2026-04-21 19:20 | 54.73982 | 24.96847 | 12654 ft | 370 kts | 295° |
| 2026-04-21 19:20 | 54.74920 | 24.92713 | 13147 ft | 374 kts | 295° |
| 2026-04-21 19:20 | 54.75843 | 24.88539 | 13671 ft | 376 kts | 295° |
| 2026-04-21 19:21 | 54.76772 | 24.84258 | 14165 ft | 379 kts | 294° |
| 2026-04-21 19:21 | 54.77686 | 24.79984 | 14643 ft | 382 kts | 294° |
| 2026-04-21 19:21 | 54.78605 | 24.75658 | 15106 ft | 385 kts | 294° |
| 2026-04-21 19:21 | 54.79517 | 24.71356 | 15571 ft | 387 kts | 295° |
| 2026-04-21 19:22 | 54.80548 | 24.67006 | 16044 ft | 387 kts | 298° |
| 2026-04-21 19:22 | 54.81664 | 24.62803 | 16490 ft | 389 kts | 300° |
| 2026-04-21 19:22 | 54.82816 | 24.58552 | 16929 ft | 392 kts | 300° |
| 2026-04-21 19:22 | 54.83972 | 24.54292 | 17353 ft | 394 kts | 300° |
| 2026-04-21 19:23 | 54.85138 | 24.49985 | 17751 ft | 397 kts | 300° |
| 2026-04-21 19:23 | 54.86311 | 24.45638 | 18169 ft | 399 kts | 300° |
| 2026-04-21 19:23 | 54.87486 | 24.41270 | 18549 ft | 402 kts | 300° |
| 2026-04-21 19:23 | 54.88656 | 24.36912 | 18935 ft | 404 kts | 300° |
| 2026-04-21 19:24 | 54.89851 | 24.32443 | 19296 ft | 407 kts | 300° |
| 2026-04-21 19:24 | 54.91042 | 24.27968 | 19604 ft | 409 kts | 300° |
| 2026-04-21 19:24 | 54.92242 | 24.23451 | 19968 ft | 412 kts | 300° |
| 2026-04-21 19:24 | 54.93443 | 24.18928 | 20317 ft | 414 kts | 300° |
| 2026-04-21 19:25 | 54.94640 | 24.14414 | 20657 ft | 417 kts | 300° |
| 2026-04-21 19:25 | 54.95859 | 24.09808 | 21004 ft | 419 kts | 300° |
| 2026-04-21 19:25 | 54.97071 | 24.05223 | 21333 ft | 422 kts | 300° |
| 2026-04-21 19:25 | 54.98289 | 24.00606 | 21655 ft | 424 kts | 300° |
| 2026-04-21 19:26 | 54.99520 | 23.95931 | 22013 ft | 426 kts | 300° |
| 2026-04-21 19:26 | 55.00763 | 23.91203 | 22323 ft | 428 kts | 300° |
| 2026-04-21 19:26 | 55.01987 | 23.86532 | 22648 ft | 430 kts | 300° |
| 2026-04-21 19:26 | 55.03223 | 23.81804 | 22952 ft | 432 kts | 300° |
| 2026-04-21 19:27 | 55.04469 | 23.77035 | 23260 ft | 435 kts | 300° |
| 2026-04-21 19:27 | 55.05732 | 23.72192 | 23545 ft | 437 kts | 300° |
| 2026-04-21 19:27 | 55.06978 | 23.67402 | 23846 ft | 439 kts | 300° |
| 2026-04-21 19:27 | 55.08234 | 23.62569 | 24141 ft | 440 kts | 300° |
| 2026-04-21 19:28 | 55.09487 | 23.57733 | 24420 ft | 442 kts | 300° |
| 2026-04-21 19:28 | 55.10778 | 23.52751 | 24705 ft | 444 kts | 300° |
| 2026-04-21 19:28 | 55.12060 | 23.47834 | 24998 ft | 446 kts | 301° |
| 2026-04-21 19:28 | 55.13330 | 23.42948 | 25266 ft | 448 kts | 300° |
| 2026-04-21 19:29 | 55.14609 | 23.37995 | 25526 ft | 450 kts | 300° |
| 2026-04-21 19:29 | 55.15893 | 23.32992 | 25788 ft | 452 kts | 299° |
| 2026-04-21 19:29 | 55.17170 | 23.27981 | 26016 ft | 455 kts | 299° |
| 2026-04-21 19:29 | 55.18460 | 23.22903 | 26267 ft | 456 kts | 299° |
| 2026-04-21 19:30 | 55.19737 | 23.17863 | 26531 ft | 457 kts | 299° |
| 2026-04-21 19:30 | 55.21035 | 23.12740 | 26783 ft | 459 kts | 299° |
| 2026-04-21 19:30 | 55.22325 | 23.07635 | 27035 ft | 460 kts | 299° |
| 2026-04-21 19:30 | 55.23640 | 23.02570 | 27358 ft | 458 kts | 301° |
| 2026-04-21 19:31 | 55.25039 | 22.97524 | 27715 ft | 456 kts | 302° |
| 2026-04-21 19:31 | 55.26443 | 22.92522 | 28043 ft | 455 kts | 302° |
| 2026-04-21 19:31 | 55.27839 | 22.87557 | 28339 ft | 455 kts | 302° |
| 2026-04-21 19:31 | 55.29219 | 22.82635 | 28636 ft | 455 kts | 302° |
| 2026-04-21 19:32 | 55.30596 | 22.77709 | 28952 ft | 454 kts | 302° |
| 2026-04-21 19:32 | 55.31982 | 22.72732 | 29273 ft | 453 kts | 302° |
| 2026-04-21 19:32 | 55.33371 | 22.67736 | 29586 ft | 452 kts | 302° |
| 2026-04-21 19:32 | 55.34742 | 22.62786 | 29904 ft | 451 kts | 302° |
| 2026-04-21 19:33 | 55.35636 | 22.59553 | 30098 ft | 451 kts | 302° |
| 2026-04-21 19:33 | 55.37457 | 22.52954 | 30491 ft | 450 kts | 302° |
| 2026-04-21 19:33 | 55.38827 | 22.47977 | 30805 ft | 449 kts | 302° |
| 2026-04-21 19:33 | 55.40167 | 22.43092 | 31091 ft | 449 kts | 302° |
| 2026-04-21 19:34 | 55.41524 | 22.38135 | 31365 ft | 448 kts | 302° |
| 2026-04-21 19:34 | 55.42867 | 22.33227 | 31587 ft | 448 kts | 302° |
| 2026-04-21 19:34 | 55.44218 | 22.28261 | 31773 ft | 449 kts | 301° |
| 2026-04-21 19:34 | 55.45557 | 22.23329 | 31982 ft | 449 kts | 301° |
| 2026-04-21 19:35 | 55.46906 | 22.18353 | 32200 ft | 449 kts | 301° |
| 2026-04-21 19:35 | 55.49583 | 22.08451 | 32586 ft | 449 kts | 301° |
| 2026-04-21 19:35 | 55.50922 | 22.03488 | 32751 ft | 450 kts | 301° |
| 2026-04-21 19:36 | 55.52248 | 21.98560 | 32896 ft | 451 kts | 301° |
| 2026-04-21 19:36 | 55.53589 | 21.93569 | 33056 ft | 452 kts | 301° |
| 2026-04-21 19:36 | 55.54937 | 21.88538 | 33220 ft | 452 kts | 301° |
| 2026-04-21 19:36 | 55.56281 | 21.83515 | 33335 ft | 453 kts | 301° |
| 2026-04-21 19:37 | 55.57624 | 21.78485 | 33470 ft | 454 kts | 301° |
| 2026-04-21 19:37 | 55.58968 | 21.73436 | 33581 ft | 455 kts | 301° |
| 2026-04-21 19:37 | 55.60311 | 21.68383 | 33702 ft | 456 kts | 301° |
| 2026-04-21 19:37 | 55.61644 | 21.63351 | 33820 ft | 457 kts | 301° |
| 2026-04-21 19:38 | 55.62987 | 21.58275 | 33949 ft | 457 kts | 301° |
| 2026-04-21 19:38 | 55.64330 | 21.53184 | 34066 ft | 458 kts | 301° |
| 2026-04-21 19:38 | 55.65228 | 21.49776 | 34137 ft | 458 kts | 301° |
| 2026-04-21 19:39 | 55.68356 | 21.37863 | 34175 ft | 459 kts | 301° |
| 2026-04-21 19:39 | 55.71032 | 21.27598 | 34180 ft | 460 kts | 300° |
| 2026-04-21 19:40 | 55.73696 | 21.17319 | 34192 ft | 460 kts | 300° |
| 2026-04-21 19:40 | 55.76340 | 21.07093 | 34200 ft | 459 kts | 300° |
| 2026-04-21 19:41 | 55.79007 | 20.96740 | 34204 ft | 459 kts | 300° |
| 2026-04-21 19:41 | 55.81644 | 20.86455 | 34212 ft | 459 kts | 300° |
| 2026-04-21 19:42 | 55.84271 | 20.76169 | 34210 ft | 459 kts | 300° |
| 2026-04-21 19:42 | 55.86882 | 20.65894 | 34210 ft | 460 kts | 300° |
| 2026-04-21 19:43 | 55.89507 | 20.55514 | 34216 ft | 459 kts | 300° |
| 2026-04-21 19:43 | 55.92096 | 20.45229 | 34218 ft | 458 kts | 300° |
| 2026-04-21 19:44 | 55.94694 | 20.34865 | 34218 ft | 459 kts | 299° |
| 2026-04-21 19:44 | 55.97279 | 20.24475 | 34221 ft | 460 kts | 299° |
| 2026-04-21 19:45 | 55.99860 | 20.14047 | 34222 ft | 459 kts | 299° |
| 2026-04-21 19:45 | 56.02432 | 20.03628 | 34230 ft | 459 kts | 299° |
| 2026-04-21 19:46 | 56.04974 | 19.93295 | 34222 ft | 458 kts | 299° |
| 2026-04-21 19:46 | 56.07532 | 19.82843 | 34220 ft | 458 kts | 299° |
| 2026-04-21 19:47 | 56.10010 | 19.72675 | 34226 ft | 459 kts | 299° |
| 2026-04-21 19:47 | 56.12620 | 19.62016 | 34227 ft | 459 kts | 299° |
| 2026-04-21 19:48 | 56.15171 | 19.51515 | 34230 ft | 458 kts | 299° |
| 2026-04-21 19:48 | 56.17689 | 19.41036 | 34230 ft | 458 kts | 299° |
| 2026-04-21 19:49 | 56.20187 | 19.30569 | 34236 ft | 459 kts | 298° |
| 2026-04-21 19:49 | 56.22682 | 19.20035 | 34235 ft | 459 kts | 298° |
| 2026-04-21 19:50 | 56.24742 | 19.11312 | 34238 ft | 458 kts | 298° |
| 2026-04-21 19:50 | 56.27364 | 18.98810 | 34240 ft | 463 kts | 290° |
| 2026-04-21 19:51 | 56.28428 | 18.87305 | 34244 ft | 470 kts | 278° |
| 2026-04-21 19:51 | 56.28184 | 18.75563 | 34248 ft | 477 kts | 265° |
| 2026-04-21 19:52 | 56.26947 | 18.63873 | 34252 ft | 478 kts | 262° |
| 2026-04-21 19:52 | 56.25590 | 18.52193 | 34252 ft | 478 kts | 262° |
| 2026-04-21 19:53 | 56.24260 | 18.40502 | 34254 ft | 478 kts | 262° |
| 2026-04-21 19:53 | 56.22911 | 18.28795 | 34257 ft | 479 kts | 260° |
| 2026-04-21 19:54 | 56.21233 | 18.17227 | 34261 ft | 480 kts | 258° |
| 2026-04-21 19:54 | 56.19489 | 18.05684 | 34265 ft | 480 kts | 258° |
| 2026-04-21 19:55 | 56.17746 | 17.94210 | 34267 ft | 480 kts | 258° |
| 2026-04-21 19:55 | 56.15974 | 17.82603 | 34266 ft | 481 kts | 258° |
| 2026-04-21 19:56 | 56.14203 | 17.71070 | 34266 ft | 481 kts | 258° |
| 2026-04-21 19:56 | 56.12409 | 17.59467 | 34270 ft | 481 kts | 258° |
| 2026-04-21 19:57 | 56.10624 | 17.48007 | 34270 ft | 482 kts | 258° |
| 2026-04-21 19:57 | 56.08813 | 17.36455 | 34264 ft | 482 kts | 258° |
| 2026-04-21 19:58 | 56.07003 | 17.24975 | 34263 ft | 482 kts | 257° |
| 2026-04-21 19:58 | 56.05172 | 17.13443 | 34265 ft | 482 kts | 257° |
| 2026-04-21 19:59 | 56.03343 | 17.02012 | 34264 ft | 482 kts | 257° |
| 2026-04-21 19:59 | 56.01482 | 16.90482 | 34268 ft | 483 kts | 257° |
| 2026-04-21 20:00 | 55.99533 | 16.79038 | 34272 ft | 485 kts | 254° |
| 2026-04-21 20:00 | 55.97250 | 16.67700 | 34276 ft | 485 kts | 254° |
| 2026-04-21 20:01 | 55.94952 | 16.56470 | 34277 ft | 485 kts | 253° |
| 2026-04-21 20:01 | 55.92638 | 16.45211 | 34280 ft | 485 kts | 254° |
| 2026-04-21 20:02 | 55.90314 | 16.33945 | 34279 ft | 486 kts | 253° |
| 2026-04-21 20:02 | 55.87958 | 16.22673 | 34282 ft | 487 kts | 253° |
| 2026-04-21 20:03 | 55.85587 | 16.11408 | 34287 ft | 488 kts | 253° |
| 2026-04-21 20:03 | 55.83221 | 16.00157 | 34288 ft | 489 kts | 253° |
| 2026-04-21 20:04 | 55.80841 | 15.88890 | 34282 ft | 488 kts | 253° |
| 2026-04-21 20:04 | 55.78447 | 15.77601 | 34285 ft | 489 kts | 253° |
| 2026-04-21 20:05 | 55.76071 | 15.66471 | 34112 ft | 481 kts | 253° |
| 2026-04-21 20:05 | 55.74889 | 15.60951 | 33395 ft | 484 kts | 253° |
| 2026-04-21 20:05 | 55.73674 | 15.55281 | 32199 ft | 498 kts | 253° |
| 2026-04-21 20:05 | 55.72442 | 15.49542 | 30895 ft | 511 kts | 253° |
| 2026-04-21 20:06 | 55.71172 | 15.43648 | 29689 ft | 517 kts | 253° |
| 2026-04-21 20:06 | 55.69900 | 15.37771 | 28670 ft | 518 kts | 252° |
| 2026-04-21 20:06 | 55.68612 | 15.31841 | 27630 ft | 519 kts | 252° |
| 2026-04-21 20:06 | 55.67308 | 15.25842 | 26496 ft | 521 kts | 251° |
| 2026-04-21 20:07 | 55.66016 | 15.19914 | 25462 ft | 521 kts | 251° |
| 2026-04-21 20:07 | 55.64702 | 15.13905 | 24890 ft | 525 kts | 251° |
| 2026-04-21 20:07 | 55.63385 | 15.07911 | 24324 ft | 527 kts | 251° |
| 2026-04-21 20:07 | 55.62065 | 15.01920 | 23760 ft | 523 kts | 251° |
| 2026-04-21 20:08 | 55.60746 | 14.95955 | 23199 ft | 518 kts | 251° |
| 2026-04-21 20:08 | 55.59446 | 14.90095 | 22649 ft | 514 kts | 251° |
| 2026-04-21 20:08 | 55.58157 | 14.84298 | 22103 ft | 503 kts | 251° |
| 2026-04-21 20:08 | 55.56884 | 14.78591 | 21539 ft | 494 kts | 251° |
| 2026-04-21 20:09 | 55.55638 | 14.73021 | 20997 ft | 484 kts | 251° |
| 2026-04-21 20:09 | 55.54419 | 14.67581 | 20481 ft | 475 kts | 251° |
| 2026-04-21 20:09 | 55.53220 | 14.62239 | 20010 ft | 466 kts | 251° |
| 2026-04-21 20:09 | 55.52039 | 14.56986 | 19481 ft | 459 kts | 251° |
| 2026-04-21 20:10 | 55.50881 | 14.51858 | 18965 ft | 452 kts | 251° |
| 2026-04-21 20:10 | 55.49714 | 14.46694 | 18443 ft | 446 kts | 251° |
| 2026-04-21 20:10 | 55.48589 | 14.41734 | 17941 ft | 440 kts | 250° |
| 2026-04-21 20:10 | 55.47463 | 14.36774 | 17434 ft | 435 kts | 250° |
| 2026-04-21 20:11 | 55.46328 | 14.31780 | 16921 ft | 429 kts | 250° |
| 2026-04-21 20:11 | 55.45224 | 14.26925 | 16427 ft | 424 kts | 249° |
| 2026-04-21 20:11 | 55.44132 | 14.22150 | 15934 ft | 420 kts | 249° |
| 2026-04-21 20:11 | 55.43041 | 14.17396 | 15438 ft | 416 kts | 249° |
| 2026-04-21 20:12 | 55.42002 | 14.12671 | 14940 ft | 411 kts | 253° |
| 2026-04-21 20:12 | 55.41348 | 14.07884 | 14463 ft | 405 kts | 263° |
| 2026-04-21 20:12 | 55.41134 | 14.02959 | 13993 ft | 398 kts | 271° |
| 2026-04-21 20:12 | 55.41128 | 13.98164 | 13519 ft | 393 kts | 273° |
| 2026-04-21 20:13 | 55.41157 | 13.93426 | 13050 ft | 389 kts | 273° |
| 2026-04-21 20:13 | 55.41181 | 13.88678 | 12575 ft | 386 kts | 273° |
| 2026-04-21 20:13 | 55.41193 | 13.83978 | 12091 ft | 382 kts | 272° |
| 2026-04-21 20:13 | 55.41197 | 13.79364 | 11628 ft | 377 kts | 272° |
| 2026-04-21 20:14 | 55.41194 | 13.74770 | 11156 ft | 373 kts | 272° |
| 2026-04-21 20:14 | 55.41186 | 13.70288 | 10739 ft | 367 kts | 272° |
| 2026-04-21 20:14 | 55.41175 | 13.65867 | 10623 ft | 352 kts | 272° |
| 2026-04-21 20:14 | 55.41163 | 13.61678 | 10534 ft | 337 kts | 272° |
| 2026-04-21 20:15 | 55.41184 | 13.57629 | 10391 ft | 323 kts | 277° |
| 2026-04-21 20:15 | 55.41489 | 13.53797 | 10183 ft | 311 kts | 286° |
| 2026-04-21 20:15 | 55.42044 | 13.50246 | 10011 ft | 300 kts | 290° |
| 2026-04-21 20:15 | 55.42664 | 13.46759 | 9751 ft | 293 kts | 291° |
| 2026-04-21 20:16 | 55.43292 | 13.43409 | 9380 ft | 290 kts | 294° |
| 2026-04-21 20:16 | 55.43984 | 13.40104 | 9109 ft | 286 kts | 295° |
| 2026-04-21 20:16 | 55.44694 | 13.36791 | 8828 ft | 286 kts | 295° |
| 2026-04-21 20:16 | 55.45385 | 13.33541 | 8545 ft | 283 kts | 294° |
| 2026-04-21 20:17 | 55.46060 | 13.30325 | 8128 ft | 283 kts | 294° |
| 2026-04-21 20:17 | 55.46736 | 13.27082 | 7818 ft | 281 kts | 293° |
| 2026-04-21 20:17 | 55.47401 | 13.23881 | 7437 ft | 280 kts | 293° |
| 2026-04-21 20:17 | 55.48065 | 13.20676 | 7060 ft | 278 kts | 293° |
| 2026-04-21 20:18 | 55.48513 | 13.18509 | 6831 ft | 277 kts | 293° |
| 2026-04-21 20:18 | 55.49377 | 13.14324 | 6372 ft | 274 kts | 293° |
| 2026-04-21 20:18 | 55.50025 | 13.11184 | 6018 ft | 272 kts | 293° |
| 2026-04-21 20:18 | 55.50670 | 13.08053 | 5669 ft | 270 kts | 293° |
| 2026-04-21 20:19 | 55.51307 | 13.04950 | 5321 ft | 268 kts | 293° |
| 2026-04-21 20:19 | 55.51933 | 13.01897 | 4976 ft | 266 kts | 293° |
| 2026-04-21 20:19 | 55.52557 | 12.98845 | 4616 ft | 264 kts | 293° |
| 2026-04-21 20:19 | 55.53181 | 12.95790 | 4265 ft | 262 kts | 294° |
| 2026-04-21 20:20 | 55.54057 | 12.93058 | 3982 ft | 250 kts | 319° |
| 2026-04-21 20:20 | 55.55502 | 12.91544 | 3964 ft | 245 kts | 348° |
| 2026-04-21 20:20 | 55.57196 | 12.91292 | 3968 ft | 244 kts | 2° |
| 2026-04-21 20:20 | 55.58853 | 12.91430 | 3954 ft | 232 kts | 5° |
| 2026-04-21 20:21 | 55.60423 | 12.91619 | 3940 ft | 217 kts | 5° |
| 2026-04-21 20:21 | 55.61895 | 12.91802 | 3736 ft | 212 kts | 5° |
| 2026-04-21 20:21 | 55.63343 | 12.92182 | 3421 ft | 211 kts | 13° |
| 2026-04-21 20:21 | 55.64760 | 12.92785 | 3104 ft | 210 kts | 14° |
| 2026-04-21 20:22 | 55.66172 | 12.93442 | 2967 ft | 209 kts | 15° |
| 2026-04-21 20:22 | 55.68940 | 12.94800 | 2944 ft | 196 kts | 15° |
| 2026-04-21 20:22 | 55.70226 | 12.95440 | 2946 ft | 190 kts | 15° |
| 2026-04-21 20:23 | 55.71495 | 12.96074 | 2947 ft | 190 kts | 15° |
| 2026-04-21 20:23 | 55.72768 | 12.96711 | 2950 ft | 190 kts | 15° |
| 2026-04-21 20:23 | 55.74036 | 12.97344 | 2954 ft | 191 kts | 15° |
| 2026-04-21 20:23 | 55.75325 | 12.97982 | 2956 ft | 191 kts | 15° |
| 2026-04-21 20:24 | 55.76629 | 12.98202 | 2926 ft | 191 kts | 347° |
| 2026-04-21 20:24 | 55.77703 | 12.97028 | 2967 ft | 179 kts | 310° |
| 2026-04-21 20:24 | 55.78068 | 12.94882 | 2988 ft | 190 kts | 271° |
| 2026-04-21 20:24 | 55.77784 | 12.92571 | 2996 ft | 195 kts | 257° |
| 2026-04-21 20:25 | 55.77222 | 12.90366 | 2970 ft | 198 kts | 241° |
| 2026-04-21 20:25 | 55.76364 | 12.88446 | 2962 ft | 201 kts | 230° |
| 2026-04-21 20:25 | 55.75375 | 12.86699 | 2965 ft | 201 kts | 226° |
| 2026-04-21 20:25 | 55.74347 | 12.85020 | 2961 ft | 201 kts | 224° |
| 2026-04-21 20:26 | 55.73297 | 12.83376 | 2846 ft | 201 kts | 224° |
| 2026-04-21 20:26 | 55.72242 | 12.81752 | 2596 ft | 199 kts | 224° |
| 2026-04-21 20:26 | 55.71200 | 12.80151 | 2330 ft | 198 kts | 224° |
| 2026-04-21 20:26 | 55.70162 | 12.78551 | 2058 ft | 196 kts | 224° |
| 2026-04-21 20:27 | 55.69148 | 12.76988 | 1779 ft | 188 kts | 225° |
| 2026-04-21 20:27 | 55.68206 | 12.75535 | 1554 ft | 173 kts | 225° |
| 2026-04-21 20:27 | 55.67316 | 12.74156 | 1305 ft | 168 kts | 224° |
| 2026-04-21 20:27 | 55.66439 | 12.72796 | 1074 ft | 166 kts | 224° |
| 2026-04-21 20:28 | 55.65583 | 12.71473 | 840 ft | 163 kts | 224° |
| 2026-04-21 20:28 | 55.64737 | 12.70161 | 628 ft | 161 kts | 223° |
| 2026-04-21 20:28 | 55.63897 | 12.68863 | 407 ft | 158 kts | 223° |
| 2026-04-21 20:28 | 55.63077 | 12.67597 | 198 ft | 156 kts | 222° |
| 2026-04-21 20:29 | 55.62265 | 12.66335 | 21 ft | 151 kts | 222° |
| 2026-04-21 20:29 | 55.61563 | 12.65245 | 15 ft | 112 kts | 222° |
| 2026-04-21 20:29 | 55.61107 | 12.64538 | 15 ft | 69 kts | 222° |
| 2026-04-21 20:29 | 55.60806 | 12.64072 | 15 ft | 38 kts | 222° |
| 2026-04-21 20:30 | 55.60694 | 12.63817 | 15 ft | 17 kts | 296° |
| 2026-04-21 20:30 | 55.60748 | 12.63665 | 15 ft | 2 kts | 311° |
| 2026-04-21 20:30 | 55.60761 | 12.63637 | 15 ft | 3 kts | 311° |
| 2026-04-21 20:30 | 55.60783 | 12.63604 | 15 ft | 4 kts | 328° |
| 2026-04-21 20:31 | 55.60816 | 12.63593 | 15 ft | 5 kts | 8° |
| 2026-04-21 20:31 | 55.60854 | 12.63624 | 15 ft | 6 kts | 31° |
| 2026-04-21 20:31 | 55.60892 | 12.63666 | 16 ft | 5 kts | 33° |
| 2026-04-21 20:31 | 55.60924 | 12.63703 | 17 ft | 5 kts | 33° |
| 2026-04-21 20:32 | 55.60958 | 12.63742 | 17 ft | 7 kts | 33° |
| 2026-04-21 20:32 | 55.61008 | 12.63800 | 16 ft | 10 kts | 33° |
| 2026-04-21 20:32 | 55.61073 | 12.63874 | 16 ft | 11 kts | 33° |
| 2026-04-21 20:32 | 55.61144 | 12.63955 | 16 ft | 13 kts | 33° |
| 2026-04-21 20:33 | 55.61226 | 12.64049 | 16 ft | 14 kts | 33° |
| 2026-04-21 20:33 | 55.61313 | 12.64151 | 15 ft | 16 kts | 33° |
| 2026-04-21 20:33 | 55.61409 | 12.64259 | 16 ft | 16 kts | 33° |
| 2026-04-21 20:33 | 55.61509 | 12.64376 | 15 ft | 17 kts | 34° |
| 2026-04-21 20:34 | 55.61613 | 12.64494 | 15 ft | 17 kts | 33° |
| 2026-04-21 20:34 | 55.61716 | 12.64614 | 15 ft | 17 kts | 33° |
| 2026-04-21 20:34 | 55.61820 | 12.64733 | 15 ft | 17 kts | 33° |
| 2026-04-21 20:34 | 55.61924 | 12.64852 | 15 ft | 17 kts | 33° |
| 2026-04-21 20:35 | 55.62027 | 12.64971 | 15 ft | 17 kts | 33° |
| 2026-04-21 20:35 | 55.62130 | 12.65090 | 15 ft | 15 kts | 33° |
| 2026-04-21 20:35 | 55.62221 | 12.65169 | 16 ft | 13 kts | 347° |
| 2026-04-21 20:35 | 55.62283 | 12.65053 | 17 ft | 13 kts | 304° |
| 2026-04-21 20:36 | 55.62334 | 12.64914 | 17 ft | 14 kts | 303° |
| 2026-04-21 20:36 | 55.62390 | 12.64763 | 16 ft | 14 kts | 303° |
| 2026-04-21 20:36 | 55.62446 | 12.64613 | 17 ft | 14 kts | 303° |
| 2026-04-21 20:36 | 55.62500 | 12.64466 | 18 ft | 14 kts | 304° |
| 2026-04-21 20:37 | 55.62559 | 12.64310 | 16 ft | 13 kts | 303° |
| 2026-04-21 20:37 | 55.62611 | 12.64274 | 17 ft | 8 kts | 27° |
| 2026-04-21 20:37 | 55.62664 | 12.64314 | 18 ft | 8 kts | 23° |
| 2026-04-21 20:37 | 55.62710 | 12.64319 | 18 ft | 2 kts | 316° |
| 2026-04-21 20:38 | 55.62715 | 12.64310 | 18 ft | 1 kts | 314° |
| 2026-04-21 20:38 | 55.62723 | 12.64294 | 18 ft | 0 kts | 303° |
| 2026-04-21 20:38 | 55.62725 | 12.64288 | 18 ft | 1 kts | 308° |
| 2026-04-21 20:38 | 55.62729 | 12.64278 | 18 ft | 0 kts | 306° |